Aviation Digital Data Service (ADDS)

Output produced by METARs form (2125 UTC 01 December 2021)
found at http://aviationweather.gov/metar/data/
 
LSZH 012120Z 27010KT 9999 -SHRA FEW011 SCT017 BKN025 06/04 Q1003 TEMPO SHRA
LSZH 012050Z 25010KT 9999 VCSH FEW017TCU SCT020 BKN040 07/04 Q1003 TEMPO SHRA
TAF LSZH 012025Z 0121/0303 24010KT 9999 -SHRA FEW017 SCT020 BKN040 TX06/0212Z
TNM01/0224Z 
     PROB40 
     TEMPO 0121/0223 24015G25KT 
     PROB40 
     TEMPO 0121/0212 SHRA BKN014 
     BECMG 0212/0214 28008KT 
     TEMPO 0212/0215 30012G25KT SHRA SCT020TCU 
     BECMG 0216/0218 27005KT
       
LFSB 012100Z AUTO 21007KT 9999 BKN023/// BKN049/// BKN130/// ///TCU 07/04 Q1003 BECMG FEW020 BKN040
LFSB 012030Z AUTO 19005KT 160V250 9999 FEW012/// BKN021/// BKN029/// ///TCU 07/05 Q1003 BECMG FEW020 BKN040
TAF LFSB 011706Z 0118/0218 24011KT 9999 FEW020 BKN040 
     TEMPO 0118/0202 -SHRA 
     PROB40 
     TEMPO 0118/0121 25016G28KT SHRA FEW020TCU BKN030 
     TEMPO 0209/0215 30012KT -SHRA FEW015TCU BKN025
       
LSZG 012120Z AUTO 24007KT 9999 BKN012 06/04 Q1003
LSZG 012050Z AUTO 22009KT 9999 SCT011 SCT013 BKN050 06/05 Q1003 REDZ
TAF LSZG 011425Z 0115/0124 24018KT 9999 -RA FEW025 BKN035 
     PROB40 
     TEMPO 0115/0118 24020G32KT 
     TEMPO 0115/0124 4000 SHRA BKN014 
     BECMG 0119/0121 23008KT
       
LSZB 012120Z AUTO 24008KT 210V280 9999 -RA FEW032 SCT036 06/03 Q1003 REDZ
LSZB 012050Z AUTO 26008KT 230V300 9999 DZ FEW041 BKN055 07/03 Q1004
TAF LSZB 011425Z 0115/0124 29002KT 9999 -RA FEW035 SCT050 BKN055 
     TEMPO 0115/0120 25012KT RA 
     PROB40 
     TEMPO 0122/0124 SHRA
       
LSGG 012120Z 31005KT 280V350 9999 -SHRA FEW010 SCT020 BKN030 05/04 Q1006 TEMPO SHRA
LSGG 012050Z 21007KT 160V260 9999 FEW010 SCT047 BKN060 06/04 Q1006 TEMPO SHRA
TAF LSGG 012025Z 0121/0303 26010KT 9999 BKN050 TX07/0215Z TN03/0206Z 
     BECMG 0206/0208 VRB02KT 
     TEMPO 0207/0214 SHRA 
     PROB30 
     TEMPO 0213/0215 33015G25KT 
     BECMG 0214/0216 05006KT 
     TEMPO 0300/0303 FEW050
       
LSZR 012120Z AUTO 24003KT 220V290 9999 SCT050 08/05 Q1002
LSZR 012050Z AUTO 26005KT 9999 FEW031 SCT041 BKN046 08/05 Q1002
TAF LSZR 011425Z 0115/0124 34004KT 9999 FEW050 BKN100 
     TEMPO 0115/0121 25015G30KT 
     TEMPO 0115/0120 RA 
     PROB40 
     TEMPO 0120/0124 SHRA
       
LSGS 012120Z AUTO VRB02KT 7000 FEW010 BKN018 BKN020 04/03 Q1005
LSGS 012050Z AUTO 01001KT 7000 BKN005 OVC009 04/03 Q1005
TAF LSGS 011425Z 0115/0124 VRB02KT 9999 FEW080 BKN100 
     TEMPO 0115/0121 RA
       
LSZA 012120Z AUTO VRB01KT 4800 BR SCT012 BKN015 BKN040 05/04 Q1005
LSZA 012050Z AUTO 35002KT 2200 BR SCT005 BKN009 BKN012 05/04 Q1005
TAF LSZA 011425Z 0115/0124 VRB02KT 9000 -RA FEW008 SCT025 BKN030 
     PROB40 
     TEMPO 0115/0122 RA
       
EDNY 012120Z AUTO 24010KT 9999 // FEW021/// BKN036/// OVC089/// 07/04 Q1002
EDNY 012050Z AUTO 24013KT 9999 // SCT022/// OVC033/// 07/04 Q1002
TAF EDNY 011700Z 0118/0218 23015KT 9999 BKN040 
     TEMPO 0118/0120 25015G25KT RA 
     PROB30 
     TEMPO 0120/0205 BKN012 
     BECMG 0200/0203 25010KT 
     TEMPO 0210/0216 SHRA BKN012TCU 
     BECMG 0216/0218 25005KT
       
EDDS 012120Z 24008KT 210V290 9999 -RA BKN025 06/03 Q0999
EDDS 012050Z 23011KT 9999 SCT025 06/03 Q0999 NOSIG
TAF AMD EDDS 011902Z 0119/0218 22012KT 9999 SCT020 
     PROB30 
     TEMPO 0119/0120 22015G25KT SHRA BKN020TCU 
     BECMG 0122/0124 24007KT 
     PROB30 
     TEMPO 0201/0215 4500 SHRA BKN012TCU
       
LOWI 012120Z 26012KT 9999 FEW040 BKN060 04/03 Q1001 NOSIG
LOWI 012050Z 27009KT 9999 FEW040 BKN060 03/02 Q1001 WS R26 NOSIG
TAF LOWI 011715Z 0118/0218 27005KT 9999 -RA SCT050 BKN070 TX04/0118Z TN01/0207Z 
     TEMPO 0122/0203 RA BKN012 
     BECMG 0202/0204 BKN006 
     BECMG 0209/0211 FEW006 BKN040 
     TEMPO 0213/0218 -SN 
     PROB30 
     TEMPO 0215/0218 1300 SN BKN010
       
EDDM 012120Z 25023G33KT 9999 FEW021 BKN026 07/03 Q0999 NOSIG
EDDM 012050Z 25022KT 9999 -RA FEW020 07/03 Q0999 NOSIG
TAF EDDM 011700Z 0118/0224 25020G35KT 9999 SCT040 
     BECMG 0121/0124 25015G25KT 
     BECMG 0202/0205 25013KT 
     PROB30 
     TEMPO 0206/0212 BKN012 
     PROB40 
     TEMPO 0212/0215 SHRA BKN012TCU 
     BECMG 0213/0215 27008KT 
     TEMPO 0215/0221 3000 -SHSNRA BKN012TCU 
     PROB30 
     TEMPO 0221/0224 2000 -SHSN BKN012TCU
       
LFMD 012100Z AUTO 25007KT 220V290 9999 OVC100 11/07 Q1004
LFMD 012030Z AUTO 25010KT 9999 BKN096 BKN180 11/07 Q1005
TAF LFMD 011400Z 0115/0215 24015KT CAVOK 
     TEMPO 0115/0117 25020G30KT 
     BECMG 0206/0208 VRB05KT
       
LFLL 012100Z VRB01KT 9999 FEW036TCU SCT060 05/04 Q1007 TEMPO VRB15KT SHRA
LFLL 012030Z 17007KT 9999 -SHRA FEW040 SCT053 BKN210 06/04 Q1007 NOSIG
TAF LFLL 011700Z 0118/0224 18007KT 9999 SCT040 
     BECMG 0120/0122 VRB02KT 
     PROB40 
     TEMPO 0122/0207 3000 BR BKN008 
     PROB30 
     TEMPO 0202/0206 -DZ 
     BECMG 0210/0212 35007KT 
     PROB40 
     TEMPO 0210/0215 4000 SHRA SCT025TCU BKN035
       
LIMC 012120Z 01004KT 9999 BKN040 04/04 Q1005 NOSIG
LIMC 012050Z 01005KT 9999 BKN045 04/04 Q1005 NOSIG
TAF LIMC 011700Z 0118/0224 VRB05KT 9000 BKN020 
     TEMPO 0118/0124 DZ 
     TEMPO 0202/0207 3000 BCFG 
     BECMG 0216/0218 36015KT 
     TEMPO 0218/0224 36015G25KT
       
LFPB 012100Z AUTO 25010KT 9999 -RA FEW019 BKN044 OVC056 07/05 Q1003 TEMPO 4000 -SHRA SCT025TCU
LFPB 012030Z AUTO 26005KT 9999 BKN046/// BKN060/// BKN072/// ///TCU 06/04 Q1003 TEMPO 4000 -SHRA
TAF LFPB 011700Z 0118/0218 27010KT 9999 SCT025 
     PROB30 
     TEMPO 0118/0202 4000 -SHRA SCT025TCU 
     BECMG 0202/0204 34008KT 
     TEMPO 0212/0215 33015G25KT
       
LIPZ 012120Z 03006KT 9999 BKN055 06/03 Q1005 NOSIG
LIPZ 012050Z 01005KT 9999 -RA BKN050 06/03 Q1006 NOSIG
TAF LIPZ 011700Z 0118/0224 02010KT 9999 BKN040 
     TEMPO 0118/0209 3000 RA 
     TEMPO 0220/0224 02015G25KT 4000 RA